.
WxDataArchive / Data Records for 2014-03-06
2014-03-05 March 2014 2014-03-07

Data Records for Thursday, 06 March 2014

Time	Temp	Chill	HIndex	Humid	Dewpt	 Wind 	HiWind	WindDir	Rain 	Barom
-----	----	-----	------	-----	-----	------	------	-------	-----	-----
00:00	15.4	15.4	15.4	68	6.8	2	6	90	0.00	30.477 
00:05	15.2	15.2	15.2	68	6.6	2	5	90	0.00	30.477 
00:10	15.2	15.2	15.2	68	6.6	2	5	90	0.00	30.477 
00:15	15.1	15.1	15.1	68	6.5	2	5	90	0.00	30.475 
00:20	15.1	15.1	15.1	69	6.8	1	5	90	0.00	30.475 
00:25	14.9	14.9	14.9	69	6.6	0	4	90	0.00	30.475 
00:30	14.9	14.9	14.9	69	6.6	1	3	90	0.00	30.476 
00:35	14.8	14.8	14.8	69	6.5	0	2	90	0.00	30.476 
00:40	14.6	14.6	14.6	70	6.6	0	1	90	0.00	30.476 
00:45	14.4	14.4	14.4	70	6.4	0	2	90	0.00	30.480 
00:50	14.3	14.3	14.3	70	6.3	0	3	90	0.00	30.480 
00:55	14.3	14.3	14.3	70	6.3	1	4	90	0.00	30.480 
01:00	14.1	14.1	14.1	70	6.1	0	3	90	0.00	30.477 
01:05	14.1	14.1	14.1	70	6.1	1	3	90	0.00	30.477 
01:10	14.1	14.1	14.1	70	6.1	1	4	90	0.00	30.477 
01:15	14.1	14.1	14.1	70	6.1	1	7	90	0.00	30.464 
01:20	14.1	14.1	14.1	70	6.1	1	4	90	0.00	30.464 
01:25	14.1	14.1	14.1	70	6.1	1	3	90	0.00	30.464 
01:30	14.1	14.1	14.1	70	6.1	1	3	90	0.00	30.464 
01:35	14.3	14.3	14.3	70	6.3	1	4	90	0.00	30.464 
01:40	14.3	14.3	14.3	70	6.3	1	4	90	0.00	30.464 
01:45	14.4	14.4	14.4	70	6.4	1	7	90	0.00	30.459 
01:50	14.6	14.6	14.6	70	6.6	1	11	90	0.00	30.459 
01:55	14.8	14.8	14.8	69	6.5	3	7	90	0.00	30.459 
02:00	14.9	14.9	14.9	69	6.6	1	6	90	0.00	30.450 
02:05	14.9	14.9	14.9	69	6.6	2	6	90	0.00	30.450 
02:10	15.1	15.1	15.1	69	6.8	2	8	90	0.00	30.450 
02:15	15.1	15.1	15.1	69	6.8	3	9	90	0.00	30.455 
02:20	15.1	15.1	15.1	69	6.8	2	6	90	0.00	30.455 
02:25	15.1	15.1	15.1	70	7.1	2	6	90	0.00	30.455 
02:30	15.2	15.2	15.2	70	7.2	2	11	90	0.00	30.448 
02:35	15.2	15.2	15.2	69	6.9	3	7	90	0.00	30.448 
02:40	15.1	15.1	15.1	69	6.8	3	8	90	0.00	30.448 
02:45	15.1	15.1	15.1	70	7.1	3	9	112	0.00	30.445 
02:50	15.1	15.1	15.1	70	7.1	3	7	90	0.00	30.445 
02:55	14.9	14.9	14.9	70	6.9	3	6	90	0.00	30.445 
03:00	14.9	14.9	14.9	70	6.9	2	7	112	0.00	30.439 
03:05	14.9	14.9	14.9	70	6.9	2	7	112	0.00	30.439 
03:10	14.9	14.9	14.9	70	6.9	2	9	90	0.00	30.439 
03:15	14.9	14.9	14.9	70	6.9	2	7	90	0.00	30.433 
03:20	14.9	14.9	14.9	71	7.2	2	6	90	0.00	30.433 
03:25	14.9	14.9	14.9	71	7.2	2	6	112	0.00	30.433 
03:30	14.9	14.9	14.9	71	7.2	1	5	90	0.00	30.429 
03:35	14.9	14.9	14.9	71	7.2	1	5	112	0.00	30.429 
03:40	14.9	14.9	14.9	71	7.2	2	5	112	0.00	30.429 
03:45	14.9	14.9	14.9	71	7.2	2	7	112	0.00	30.422 
03:50	14.9	14.9	14.9	71	7.2	1	6	112	0.00	30.422 
03:55	14.9	14.9	14.9	71	7.2	3	10	90	0.00	30.422 
04:00	14.9	14.9	14.9	71	7.2	2	9	90	0.00	30.413 
04:05	14.9	14.9	14.9	71	7.2	2	9	90	0.00	30.413 
04:10	14.9	14.9	14.9	71	7.2	2	7	112	0.00	30.413 
04:15	14.9	14.9	14.9	71	7.2	3	11	112	0.00	30.419 
04:20	14.9	14.9	14.9	71	7.2	2	8	90	0.00	30.419 
04:25	14.9	14.9	14.9	71	7.2	1	5	90	0.00	30.419 
04:30	14.9	14.9	14.9	72	7.5	1	6	90	0.00	30.414 
04:35	14.8	14.8	14.8	72	7.4	3	10	90	0.00	30.414 
04:40	14.8	14.8	14.8	72	7.4	2	5	90	0.00	30.414 
04:45	14.8	14.8	14.8	72	7.4	1	6	112	0.00	30.417 
04:50	14.6	14.6	14.6	72	7.2	1	6	112	0.00	30.417 
04:55	14.6	14.6	14.6	72	7.2	1	6	90	0.00	30.417 
05:00	14.6	14.6	14.6	72	7.2	2	6	112	0.00	30.422 
05:05	14.4	14.4	14.4	72	7.1	1	6	90	0.00	30.422 
05:10	14.4	14.4	14.4	72	7.1	2	5	90	0.00	30.422 
05:15	14.3	14.3	14.3	73	7.3	1	5	90	0.00	30.417 
05:20	14.3	14.3	14.3	73	7.3	2	6	112	0.00	30.417 
05:25	14.3	14.3	14.3	73	7.3	2	5	90	0.00	30.417 
05:30	14.3	14.3	14.3	73	7.3	1	6	90	0.00	30.418 
05:35	14.1	14.1	14.1	73	7.1	2	6	90	0.00	30.418 
05:40	14.1	14.1	14.1	73	7.1	1	4	90	0.00	30.418 
05:45	14.1	14.1	14.1	74	7.4	1	5	90	0.00	30.427 
05:50	14.3	14.3	14.3	74	7.6	1	3	90	0.00	30.427 
05:55	14.3	14.3	14.3	74	7.6	1	3	90	0.00	30.427 
06:00	14.3	14.3	14.3	74	7.6	1	5	68	0.00	30.428 
06:05	14.3	14.3	14.3	74	7.6	1	4	90	0.00	30.428 
06:10	14.3	14.3	14.3	74	7.6	1	4	90	0.00	30.428 
06:15	14.4	14.4	14.4	74	7.7	1	4	90	0.00	30.431 
06:20	14.4	14.4	14.4	74	7.7	3	9	90	0.00	30.431 
06:25	14.4	14.4	14.4	74	7.7	2	9	90	0.00	30.431 
06:30	14.6	14.6	14.6	74	7.8	2	6	90	0.00	30.427 
06:35	14.6	14.6	14.6	74	7.8	1	7	90	0.00	30.427 
06:40	14.6	14.6	14.6	74	7.8	2	6	90	0.00	30.427 
06:45	14.6	14.6	14.6	74	7.8	2	7	90	0.00	30.425 
06:50	14.6	14.6	14.6	74	7.8	2	4	90	0.00	30.425 
06:55	14.6	14.6	14.6	74	7.8	2	6	90	0.00	30.425 
07:00	14.6	14.6	14.6	74	7.8	1	5	90	0.00	30.420 
07:05	14.4	14.4	14.4	74	7.7	1	3	90	0.00	30.420 
07:10	14.3	14.3	14.3	74	7.6	1	4	90	0.00	30.420 
07:15	14.1	14.1	14.1	75	7.7	1	4	90	0.00	30.415 
07:20	14.0	14.0	14.0	75	7.6	1	3	90	0.00	30.415 
07:25	13.8	13.8	13.8	75	7.4	1	5	90	0.00	30.415 
07:30	13.8	13.8	13.8	75	7.4	1	4	90	0.00	30.411 
07:35	13.8	13.8	13.8	75	7.4	0	2	90	0.00	30.411 
07:40	13.8	13.8	13.8	75	7.4	0	2	90	0.00	30.411 
07:45	13.8	13.8	13.8	75	7.4	1	4	90	0.00	30.410 
07:50	13.8	13.8	13.8	75	7.4	1	3	90	0.00	30.410 
07:55	14.0	14.0	14.0	75	7.6	1	5	90	0.00	30.410 
08:00	14.1	14.1	14.1	75	7.7	0	2	90	0.00	30.410 
08:05	14.3	14.3	14.3	75	7.9	1	6	90	0.00	30.410 
08:10	14.4	14.4	14.4	74	7.7	2	5	112	0.00	30.410 
08:15	14.6	14.6	14.6	74	7.8	1	3	112	0.00	30.413 
08:20	14.9	14.9	14.9	74	8.1	1	4	112	0.00	30.413 
08:25	15.2	15.2	15.2	73	8.1	1	4	112	0.00	30.413 
08:30	15.6	15.6	15.6	73	8.5	2	6	112	0.00	30.412 
08:35	15.9	15.9	15.9	72	8.5	2	7	112	0.00	30.412 
08:40	16.1	16.1	16.1	71	8.4	2	7	90	0.00	30.412 
08:45	16.1	16.1	16.1	71	8.4	3	6	90	0.00	30.404 
08:50	16.4	16.4	16.4	70	8.4	2	6	90	0.00	30.404 
08:55	16.5	16.5	16.5	70	8.5	3	7	90	0.00	30.404 
09:00	16.7	16.7	16.7	69	8.3	3	5	90	0.00	30.401 
09:05	17.2	17.2	17.2	69	8.8	2	7	90	0.00	30.401 
09:10	17.2	17.2	17.2	69	8.8	3	9	90	0.00	30.401 
09:15	17.7	17.7	17.7	68	9.0	3	5	90	0.00	30.395 
09:20	17.7	11.6	17.7	68	9.0	4	11	90	0.00	30.395 
09:25	18.0	18.0	18.0	68	9.2	3	7	90	0.00	30.395 
09:30	18.4	18.4	18.4	67	9.3	2	7	90	0.00	30.394 
09:35	18.9	18.9	18.9	66	9.4	2	10	112	0.00	30.394 
09:40	19.2	19.2	19.2	65	9.4	2	9	90	0.00	30.394 
09:45	19.4	19.4	19.4	65	9.6	2	7	112	0.00	30.386 
09:50	19.7	19.7	19.7	65	9.9	2	9	112	0.00	30.386 
09:55	20.0	20.0	20.0	65	10.2	2	5	90	0.00	30.386 
10:00	19.9	19.9	19.9	65	10.1	3	9	90	0.00	30.382 
10:05	20.0	20.0	20.0	65	10.2	3	9	90	0.00	30.382 
10:10	20.3	20.3	20.3	65	10.4	3	7	90	0.00	30.382 
10:15	20.2	13.2	20.2	64	10.0	5	13	112	0.00	30.384 
10:20	20.0	13.0	20.0	65	10.2	5	9	112	0.00	30.384 
10:25	20.2	14.4	20.2	65	10.3	4	10	90	0.00	30.384 
10:30	20.3	13.3	20.3	65	10.4	5	15	90	0.00	30.382 
10:35	20.2	13.2	20.2	64	10.0	5	15	90	0.00	30.382 
10:40	20.2	13.2	20.2	65	10.3	5	10	90	0.00	30.382 
10:45	20.2	13.2	20.2	65	10.3	5	10	90	0.00	30.384 
10:50	20.3	14.6	20.3	65	10.4	4	11	90	0.00	30.384 
10:55	20.3	13.3	20.3	65	10.4	5	10	90	0.00	30.384 
11:00	20.2	13.2	20.2	66	10.7	5	10	112	0.00	30.380 
11:05	20.5	14.8	20.5	67	11.3	4	9	90	0.00	30.380 
11:10	20.8	13.9	20.8	65	10.9	5	10	90	0.00	30.380 
11:15	21.0	15.4	21.0	66	11.5	4	9	112	0.00	30.382 
11:20	21.1	15.5	21.1	65	11.2	4	9	90	0.00	30.382 
11:25	21.0	14.2	21.0	66	11.5	5	9	90	0.00	30.382 
11:30	21.0	15.4	21.0	65	11.1	4	7	90	0.00	30.382 
11:35	21.4	21.4	21.4	67	12.2	3	8	90	0.00	30.382 
11:40	21.9	21.9	21.9	66	12.3	3	7	90	0.00	30.382 
11:45	22.2	22.2	22.2	65	12.3	3	9	90	0.00	30.368 
11:50	22.2	22.2	22.2	64	11.9	3	9	90	0.00	30.368 
11:55	22.4	22.4	22.4	66	12.8	3	9	90	0.00	30.368 
12:00	22.4	22.4	22.4	65	12.4	3	7	90	0.00	30.367 
12:05	22.5	22.5	22.5	65	12.5	2	9	90	0.00	30.367 
12:10	22.5	17.1	22.5	64	12.2	4	9	90	0.00	30.367 
12:15	22.4	22.4	22.4	64	12.1	3	6	90	0.00	30.360 
12:20	22.1	15.4	22.1	64	11.8	5	10	90	0.00	30.360 
12:25	22.2	22.2	22.2	65	12.3	3	8	90	0.00	30.360 
12:30	22.9	22.9	22.9	65	12.9	3	7	90	0.00	30.347 
12:35	23.0	23.0	23.0	63	12.3	3	6	90	0.00	30.347 
12:40	23.3	23.3	23.3	64	13.0	3	5	90	0.00	30.347 
12:45	23.3	18.0	23.3	62	12.2	4	9	90	0.00	30.346 
12:50	23.2	17.9	23.2	63	12.5	4	7	90	0.00	30.346 
12:55	23.3	23.3	23.3	64	13.0	2	5	90	0.00	30.346 
13:00	23.8	23.8	23.8	62	12.7	2	7	112	0.00	30.332 
13:05	23.9	18.7	23.9	62	12.8	4	10	90	0.00	30.332 
13:10	23.9	23.9	23.9	62	12.8	2	6	90	0.00	30.332 
13:15	23.8	18.6	23.8	62	12.7	4	10	90	0.00	30.326 
13:20	23.9	23.9	23.9	63	13.2	2	9	90	0.00	30.326 
13:25	24.2	24.2	24.2	64	13.8	2	7	112	0.00	30.326 
13:30	24.2	24.2	24.2	62	13.1	3	6	90	0.00	30.318 
13:35	24.2	24.2	24.2	64	13.8	2	9	90	0.00	30.318 
13:40	24.4	24.4	24.4	62	13.3	2	6	22	0.00	30.318 
13:45	24.5	24.5	24.5	62	13.4	2	6	90	0.00	30.314 
13:50	24.7	24.7	24.7	62	13.6	1	5	90	0.00	30.314 
13:55	24.8	24.8	24.8	62	13.7	2	6	90	0.00	30.314 
14:00	24.7	24.7	24.7	61	13.2	2	6	112	0.00	30.311 
14:05	24.5	24.5	24.5	62	13.4	2	6	112	0.00	30.311 
14:10	24.8	24.8	24.8	63	14.0	1	5	112	0.00	30.311 
14:15	24.8	24.8	24.8	62	13.7	2	5	112	0.00	30.304 
14:20	24.7	24.7	24.7	62	13.6	2	6	112	0.00	30.304 
14:25	24.7	24.7	24.7	62	13.6	2	5	90	0.00	30.304 
14:30	24.7	24.7	24.7	62	13.6	2	8	90	0.00	30.301 
14:35	24.8	24.8	24.8	62	13.7	2	5	90	0.00	30.301 
14:40	24.8	24.8	24.8	62	13.7	2	6	90	0.00	30.301 
14:45	24.8	24.8	24.8	63	14.0	2	5	90	0.00	30.298 
14:50	25.0	25.0	25.0	63	14.2	1	5	90	0.00	30.298 
14:55	25.3	25.3	25.3	63	14.5	2	6	90	0.00	30.298 
15:00	25.3	25.3	25.3	62	14.1	3	6	90	0.00	30.288 
15:05	25.0	25.0	25.0	62	13.8	3	7	90	0.00	30.288 
15:10	25.3	25.3	25.3	63	14.5	2	5	90	0.00	30.288 
15:15	25.4	25.4	25.4	62	14.2	2	6	68	0.00	30.280 
15:20	25.3	25.3	25.3	62	14.1	3	7	90	0.00	30.280 
15:25	25.3	25.3	25.3	62	14.1	3	6	90	0.00	30.280 
15:30	25.3	25.3	25.3	62	14.1	3	7	90	0.00	30.271 
15:35	25.4	25.4	25.4	62	14.2	2	5	90	0.00	30.271 
15:40	25.6	25.6	25.6	62	14.4	2	7	90	0.00	30.271 
15:45	25.6	25.6	25.6	62	14.4	3	7	90	0.00	30.268 
15:50	25.6	25.6	25.6	62	14.4	2	5	90	0.00	30.268 
15:55	25.6	25.6	25.6	62	14.4	3	5	90	0.00	30.268 
16:00	25.6	25.6	25.6	62	14.4	3	5	90	0.00	30.269 
16:05	25.4	25.4	25.4	63	14.6	2	6	90	0.00	30.269 
16:10	25.6	25.6	25.6	62	14.4	3	7	90	0.00	30.269 
16:15	25.6	25.6	25.6	63	14.8	3	7	90	0.00	30.267 
16:20	25.6	25.6	25.6	62	14.4	2	5	90	0.00	30.267 
16:25	25.6	25.6	25.6	62	14.4	2	5	90	0.00	30.267 
16:30	25.6	25.6	25.6	63	14.8	2	6	90	0.00	30.260 
16:35	25.6	25.6	25.6	63	14.8	2	5	90	0.00	30.260 
16:40	25.4	25.4	25.4	63	14.6	3	9	90	0.00	30.260 
16:45	25.4	25.4	25.4	63	14.6	3	6	112	0.00	30.259 
16:50	25.4	25.4	25.4	63	14.6	1	6	112	0.00	30.259 
16:55	25.6	25.6	25.6	63	14.8	2	6	90	0.00	30.259 
17:00	25.4	25.4	25.4	62	14.2	3	7	90	0.00	30.258 
17:05	25.4	25.4	25.4	63	14.6	2	5	112	0.00	30.258 
17:10	25.3	20.3	25.3	63	14.5	4	9	112	0.00	30.258 
17:15	25.1	25.1	25.1	63	14.3	3	9	90	0.00	30.255 
17:20	25.1	25.1	25.1	64	14.7	3	6	90	0.00	30.255 
17:25	25.1	25.1	25.1	63	14.3	2	7	90	0.00	30.255 
17:30	25.1	25.1	25.1	64	14.7	3	5	90	0.00	30.254 
17:35	25.0	25.0	25.0	64	14.6	2	5	90	0.00	30.254 
17:40	25.0	25.0	25.0	64	14.6	2	6	90	0.00	30.254 
17:45	25.0	25.0	25.0	64	14.6	3	6	90	0.00	30.251 
17:50	24.8	24.8	24.8	64	14.4	3	7	90	0.00	30.251 
17:55	24.7	24.7	24.7	64	14.3	2	5	90	0.00	30.251 
18:00	24.7	24.7	24.7	65	14.6	1	4	90	0.00	30.251 
18:05	24.5	24.5	24.5	65	14.4	2	4	90	0.00	30.251 
18:10	24.4	24.4	24.4	65	14.3	3	4	68	0.00	30.251 
18:15	24.1	24.1	24.1	65	14.1	2	5	68	0.00	30.249 
18:20	23.9	23.9	23.9	65	13.9	2	5	90	0.00	30.249 
18:25	23.8	23.8	23.8	65	13.8	2	6	90	0.00	30.249 
18:30	23.5	23.5	23.5	65	13.5	2	4	90	0.00	30.238 
18:35	23.3	23.3	23.3	66	13.6	0	3	90	0.00	30.238 
18:40	23.0	23.0	23.0	66	13.4	2	4	90	0.00	30.238 
18:45	22.9	22.9	22.9	67	13.6	1	3	90	0.00	30.230 
18:50	22.7	22.7	22.7	67	13.4	1	2	90	0.00	30.230 
18:55	22.4	22.4	22.4	68	13.5	1	4	90	0.00	30.230 
19:00	22.2	22.2	22.2	68	13.3	1	3	90	0.00	30.225 
19:05	22.1	22.1	22.1	69	13.5	1	5	90	0.00	30.225 
19:10	21.8	21.8	21.8	69	13.2	1	3	90	0.00	30.225 
19:15	21.6	21.6	21.6	69	13.0	1	3	90	0.00	30.224 
19:20	21.4	21.4	21.4	70	13.2	0	2	90	0.00	30.224 
19:25	21.1	21.1	21.1	70	12.9	0	1	90	0.00	30.224 
19:30	21.0	21.0	21.0	70	12.8	1	2	90	0.00	30.225 
19:35	20.8	20.8	20.8	71	12.9	1	2	90	0.00	30.225 
19:40	20.6	20.6	20.6	71	12.7	0	2	90	0.00	30.225 
19:45	20.5	20.5	20.5	71	12.6	0	2	90	0.00	30.222 
19:50	20.3	20.3	20.3	71	12.4	0	2	90	0.00	30.222 
19:55	20.2	20.2	20.2	72	12.6	0	2	90	0.00	30.222 
20:00	20.0	20.0	20.0	72	12.5	0	2	90	0.00	30.216 
20:05	20.0	20.0	20.0	72	12.5	0	2	90	0.00	30.216 
20:10	19.9	19.9	19.9	72	12.4	0	2	90	0.00	30.216 
20:15	19.7	19.7	19.7	73	12.5	0	1	90	0.00	30.221 
20:20	19.5	19.5	19.5	73	12.3	0	2	90	0.00	30.221 
20:25	19.4	19.4	19.4	73	12.2	0	1	90	0.00	30.221 
20:30	19.1	19.1	19.1	73	11.9	0	1	90	0.00	30.214 
20:35	18.9	18.9	18.9	73	11.7	0	1	90	0.00	30.214 
20:40	18.8	18.8	18.8	73	11.6	0	0	---	0.00	30.214 
20:45	18.4	18.4	18.4	74	11.5	0	0	---	0.00	30.222 
20:50	18.1	18.1	18.1	74	11.2	0	0	---	0.00	30.222 
20:55	18.0	18.0	18.0	74	11.1	0	0	---	0.00	30.222 
21:00	17.8	17.8	17.8	75	11.2	0	1	90	0.00	30.218 
21:05	17.8	17.8	17.8	76	11.5	0	1	90	0.00	30.218 
21:10	17.8	17.8	17.8	76	11.5	0	1	90	0.00	30.218 
21:15	18.0	18.0	18.0	76	11.7	0	2	90	0.00	30.208 
21:20	18.1	18.1	18.1	75	11.5	1	3	90	0.00	30.208 
21:25	18.1	18.1	18.1	75	11.5	0	3	90	0.00	30.208 
21:30	18.1	18.1	18.1	75	11.5	1	3	90	0.00	30.205 
21:35	18.1	18.1	18.1	75	11.5	1	5	90	0.00	30.205 
21:40	18.0	18.0	18.0	75	11.4	1	3	90	0.00	30.205 
21:45	18.0	18.0	18.0	75	11.4	0	1	90	0.00	30.213 
21:50	17.7	17.7	17.7	75	11.1	0	0	---	0.00	30.213 
21:55	17.3	17.3	17.3	75	10.8	0	1	90	0.00	30.213 
22:00	16.9	16.9	16.9	75	10.4	0	0	---	0.00	30.224 
22:05	16.5	16.5	16.5	75	10.0	0	0	---	0.00	30.224 
22:10	16.2	16.2	16.2	75	9.7	0	0	---	0.00	30.224 
22:15	16.1	16.1	16.1	76	9.9	0	0	---	0.00	30.226 
22:20	15.9	15.9	15.9	76	9.7	0	0	---	0.00	30.226 
22:25	15.7	15.7	15.7	76	9.5	0	0	---	0.00	30.226 
22:30	15.4	15.4	15.4	77	9.5	0	0	---	0.00	30.226 
22:35	15.2	15.2	15.2	77	9.3	0	0	---	0.00	30.226 
22:40	15.1	15.1	15.1	77	9.2	0	0	---	0.00	30.226 
22:45	14.9	14.9	14.9	77	9.0	0	0	---	0.00	30.226 
22:50	14.8	14.8	14.8	78	9.2	0	0	---	0.00	30.226 
22:55	14.4	14.4	14.4	78	8.8	0	0	---	0.00	30.226 
23:00	14.4	14.4	14.4	78	8.8	0	0	---	0.00	30.223 
23:05	14.4	14.4	14.4	79	9.1	0	1	90	0.00	30.223 
23:10	14.4	14.4	14.4	80	9.4	0	0	---	0.00	30.223 
23:15	14.8	14.8	14.8	80	9.8	0	1	90	0.00	30.203 
23:20	14.9	14.9	14.9	80	9.9	0	0	---	0.00	30.203 
23:25	14.9	14.9	14.9	80	9.9	0	0	---	0.00	30.203 
23:30	14.8	14.8	14.8	80	9.8	0	0	---	0.00	30.194 
23:35	14.6	14.6	14.6	80	9.6	0	0	---	0.00	30.194 
23:40	14.6	14.6	14.6	80	9.6	0	0	---	0.00	30.194 
23:45	14.4	14.4	14.4	81	9.7	0	0	---	0.00	30.187 
23:50	14.6	14.6	14.6	81	9.9	0	1	90	0.00	30.187 
23:55	14.8	14.8	14.8	81	10.0	0	0	---	0.00	30.187 

CoCoRaHS
IN-AL-39
A2 Web Hosting
Creative Commons License
GoDaddy
search engine by freefind advanced

loaded 2018-11-18 11:08:31 • last modified 2010-11-18 10:43:29
Privacy PolicyDisclaimer
• wx.awcolley.com is powered by PmWiki v.2002016 •
• all content (unless otherwise noted) © 2018 A W Colley